Flight Track Log - Related Links

Times and Time Zones

All times are in EDT time to prevent confusion due to time zone crossing. See the UPS1219 flight status page for this flight to view local times or setup timezone preferences in your user account.

Time Position Orientation Groundspeed Altitude Reporting Facility
EDT Latitude Longitude Course Direction KTS MPH feet Rate Location/Type
Thu 10:56:21 PM 38.9420 -77.5070 265° West 168 193 2,200  Level FlightAware ADS-B
Thu 10:56:51 PM 38.9390 -77.5430 264° West 230 265 2,900 2,400 Climbing FlightAware ADS-B
Thu 10:57:21 PM 38.9270 -77.5830 249° West 254 292 4,600 3,600 Climbing FlightAware ADS-B
Thu 10:57:46 PM 38.9120 -77.6170 240° Southwest 268 308 6,200 3,840 Climbing FlightAware ADS-B
Thu 10:58:11 PM 38.8960 -77.6510 239° Southwest 279 321 7,800 3,927 Climbing FlightAware ADS-B
Thu 10:58:41 PM 38.8780 -77.6980 244° Southwest 289 333 9,800 3,600 Climbing FlightAware ADS-B
Thu 10:58:56 PM 38.8740 -77.7230 258° West 307 353 10,500 2,073 Climbing FlightAware ADS-B
Thu 10:59:36 PM 38.8710 -77.8040 267° West 367 422 11,700 2,222 Climbing FlightAware ADS-B
Thu 11:00:17 PM 38.8680 -77.8960 268° West 397 457 13,500 3,106 Climbing FlightAware ADS-B
Thu 11:01:01 PM 38.8650 -78.0030 268° West 407 468 16,100 3,214 Climbing FlightAware ADS-B
Thu 11:01:41 PM 38.8610 -78.1010 267° West 419 482 18,000 2,791 Climbing FlightAware ADS-B
Thu 11:02:27 PM 38.8550 -78.2150 266° West 433 498 20,100 2,753 Climbing FlightAware ADS-B
Thu 11:03:06 PM 38.8520 -78.3190 268° West 444 511 21,900 2,582 Climbing FlightAware ADS-B
Thu 11:03:46 PM 38.8520 -78.4250 270° West 454 522 23,500 2,259 Climbing FlightAware ADS-B
Thu 11:04:31 PM 38.8500 -78.5470 269° West 463 533 25,100 2,133 Climbing FlightAware ADS-B
Thu 11:05:16 PM 38.8410 -78.6710 265° West 469 540 26,700 2,400 Climbing FlightAware ADS-B
Thu 11:05:56 PM 38.8250 -78.7800 259° West 465 535 28,500 2,625 Climbing FlightAware ADS-B
Thu 11:06:36 PM 38.8090 -78.8880 259° West 458 527 30,200 2,325 Climbing FlightAware ADS-B
Thu 11:07:16 PM 38.7930 -78.9940 259° West 457 526 31,600 1,271 Climbing FlightAware ADS-B
Thu 11:08:01 PM 38.7760 -79.1150 260° West 460 529 32,000 282 Climbing FlightAware ADS-B
Thu 11:08:41 PM 38.7600 -79.2190 259° West 458 527 32,000  Level FlightAware ADS-B
Thu 11:09:26 PM 38.7420 -79.3410 259° West 455 524 32,000  Level FlightAware ADS-B
Thu 11:10:06 PM 38.7260 -79.4440 259° West 456 525 32,000  Level FlightAware ADS-B
Thu 11:10:50 PM 38.7090 -79.5580 259° West 456 525 32,000  Level FlightAware ADS-B
Thu 11:11:32 PM 38.6910 -79.6770 259° West 454 522 32,000  Level FlightAware ADS-B
Thu 11:12:16 PM 38.6730 -79.7900 259° West 453 521 32,000  Level FlightAware ADS-B
Thu 11:12:54 PM 38.6580 -79.8870 259° West 453 521 32,000  Level FlightAware ADS-B
Thu 11:13:34 PM 38.6410 -79.9940 259° West 450 518 32,000  Level FlightAware ADS-B
Thu 11:14:21 PM 38.6230 -80.1090 259° West 449 517 32,000  Level FlightAware ADS-B
Thu 11:15:06 PM 38.6070 -80.2050 258° West 449 517 32,000  Level FlightAware ADS-B
Thu 11:15:43 PM 38.5880 -80.3310 259° West 451 519 32,000  Level FlightAware ADS-B
Thu 11:16:21 PM 38.5740 -80.4150 258° West 451 519 32,000  Level FlightAware ADS-B
Thu 11:17:09 PM 38.5420 -80.5540 254° West 470 541 32,000  Level FlightAware ADS-B
Thu 11:17:53 PM 38.5150 -80.6710 254° West 466 536 32,000  Level FlightAware ADS-B
Thu 11:18:33 PM 38.4890 -80.7780 253° West 463 533 32,000  Level FlightAware ADS-B
Thu 11:19:17 PM 38.4620 -80.8930 253° West 463 533 32,000 289 Level FlightAware ADS-B
Thu 11:19:56 PM 38.4380 -80.9950 253° West 462 532 32,400 1,429 Climbing FlightAware ADS-B
Thu 11:20:41 PM 38.4100 -81.1130 253° West 455 524 34,000 1,129 Climbing FlightAware ADS-B
Thu 11:21:21 PM 38.3860 -81.2140 253° West 459 528 34,000  Level FlightAware ADS-B
Thu 11:22:03 PM 38.3590 -81.3250 253° West 455 524 34,000  Level FlightAware ADS-B
Thu 11:22:47 PM 38.3320 -81.4340 253° West 452 520 34,000  Level FlightAware ADS-B
Thu 11:23:27 PM 38.3080 -81.5360 253° West 453 521 34,000  Level FlightAware ADS-B
Thu 11:24:16 PM 38.2766 -81.6632 253° West 453 521 34,000  Level FlightAware ADS-B
Thu 11:24:46 PM 38.2578 -81.7397 253° West 455 524 34,000  Level FlightAware ADS-B
Thu 11:25:32 PM 38.2290 -81.8570 253° West 455 524 34,000  Level FlightAware ADS-B
Thu 11:26:10 PM 38.2049 -81.9539 252° West 455 524 34,000  Level FlightAware ADS-B
Thu 11:26:42 PM 38.1850 -82.0329 252° West 455 524 34,000  Level FlightAware ADS-B
Thu 11:27:13 PM 38.1653 -82.1115 252° West 453 521 34,000  Level FlightAware ADS-B
Thu 11:28:21 PM 38.1219 -82.2857 252° West 451 519 34,000  Level FlightAware ADS-B
Thu 11:28:54 PM 38.1012 -82.3690 252° West 451 519 34,000  Level FlightAware ADS-B
Thu 11:29:44 PM 38.0690 -82.4940 252° West 461 531 34,000  Level FlightAware ADS-B
Thu 11:30:26 PM 38.0420 -82.6020 252° West 460 529 34,000 -209 Level FlightAware ADS-B
Thu 11:31:10 PM 38.0130 -82.7150 252° West 459 528 33,700 -632 Descending FlightAware ADS-B
Thu 11:31:42 PM 37.9920 -82.7966 252° West 459 528 33,200 -1,091 Descending FlightAware ADS-B
Thu 11:32:16 PM 37.9693 -82.8864 252° West 459 528 32,500 -900 Descending FlightAware ADS-B
Thu 11:33:02 PM 37.9395 -83.0013 252° West 459 528 32,000 -390 Descending FlightAware ADS-B
Thu 11:33:33 PM 37.9186 -83.0829 252° West 459 528 32,000  Level FlightAware ADS-B
Thu 11:34:33 PM 37.8860 -83.1980 250° West 458 527 32,000  Level FlightAware ADS-B
Thu 11:35:21 PM 37.8580 -83.3020 251° West 458 527 32,000 -247 Level FlightAware ADS-B
Thu 11:35:46 PM 37.8307 -83.4185 254° West 459 528 31,700 -1,751 Descending FlightAware ADS-B
Thu 11:39:38 PM 37.6744 -84.0080 252° West 450 518 24,500 -1,939 Descending FlightAware ADS-B
Thu 11:40:09 PM 37.6548 -84.0796 251° West 427 491 23,200 -2,615 Descending FlightAware ADS-B
Thu 11:40:56 PM 37.6418 -84.1968 262° West 429 494 21,100 -2,533 Descending FlightAware ADS-B
Thu 11:41:39 PM 37.6440 -84.3010 272° West 424 488 19,400 -2,286 Descending FlightAware ADS-B
Thu 11:42:20 PM 37.6460 -84.3960 272° West 411 473 17,900 -1,154 Descending FlightAware ADS-B
Thu 11:42:57 PM 37.6470 -84.4710 271° West 411 473 17,900  Level FlightAware ADS-B
Thu 11:43:46 PM 37.6490 -84.5710 271° West 411 473 17,900  Level FlightAware ADS-B
Thu 11:44:20 PM 37.6490 -84.6410 270° West 411 473 17,900  Level FlightAware ADS-B
Thu 11:45:09 PM 37.6510 -84.7410 271° West 411 473 17,900  Level FlightAware ADS-B
Thu 11:45:45 PM 37.6520 -84.8140 271° West 411 473 17,900 -1,553 Level FlightAware ADS-B
Thu 11:50:18 PM 37.9110 -85.3380 302° West 378 435 9,900 -1,638 Descending FlightAware ADS-B
Thu 11:50:38 PM 37.9360 -85.3700 315° West 378 435 9,900  Level FlightAware ADS-B
Thu 11:51:14 PM 37.9810 -85.4240 317° Northwest 377 434 9,900  Level FlightAware ADS-B
Thu 11:51:26 PM 37.9940 -85.4410 314° West 377 434 9,900  Level FlightAware ADS-B
Thu 11:51:54 PM 38.0300 -85.4840 317° Northwest 342 394 9,900  Level FlightAware ADS-B
Thu 11:52:22 PM 38.0600 -85.5210 316° Northwest 309 356 9,900 -643 Level FlightAware ADS-B
Thu 11:52:50 PM 38.0880 -85.5560 315° West 299 344 9,300 -1,929 Descending FlightAware ADS-B
Thu 11:53:18 PM 38.1210 -85.5840 326° Northwest 308 354 8,100 -2,464 Descending FlightAware ADS-B
Thu 11:53:46 PM 38.1590 -85.5990 343° North 303 349 7,000 -2,211 Descending FlightAware ADS-B
Thu 11:54:15 PM 38.1970 -85.6110 346° North 294 338 6,000 -2,073 Descending FlightAware ADS-B
Thu 11:54:41 PM 38.2300 -85.6210 347° North 293 337 5,100 -1,636 Descending FlightAware ADS-B
Thu 11:55:10 PM 38.2700 -85.6330 347° North 288 331 4,500 -1,158 Descending FlightAware ADS-B
Thu 11:55:38 PM 38.3070 -85.6440 347° North 278 320 4,000 -857 Descending FlightAware ADS-B
Thu 11:57:02 PM 38.3400 -85.7180 300° West 176 203 2,900 -750 Descending FlightAware ADS-B
Thu 11:57:14 PM 38.3340 -85.7270 230° Southwest 159 183 2,800 -545 Descending FlightAware ADS-B
Thu 11:57:46 PM 38.3130 -85.7400 206° Southwest 151 174 2,500 -400 Descending FlightAware ADS-B
Thu 11:58:14 PM 38.2960 -85.7520 209° Southwest 148 170 2,400 -150 Descending FlightAware ADS-B
Thu 11:58:26 PM 38.2890 -85.7550 199° South 148 170 2,400 -429 Level FlightAware ADS-B
Thu 11:58:42 PM 38.2780 -85.7590 196° South 147 169 2,200 -682 Descending FlightAware ADS-B
Thu 11:59:10 PM 38.2590 -85.7560 173° South 130 150 1,900 -643 Descending FlightAware ADS-B
Thu 11:59:38 PM 38.2450 -85.7510 164° South 105 121 1,600 -643 Descending FlightAware ADS-B
Fri 12:00:06 AM 38.2310 -85.7470 167° South 104 120 1,300 -577 Descending FlightAware ADS-B
Fri 12:00:30 AM 38.2200 -85.7430 164° South 108 124 1,100 -556 Descending FlightAware ADS-B
Fri 12:01:00 AM 38.2050 -85.7370 163° South 114 131 800 -643 Descending FlightAware ADS-B
Fri 12:01:26 AM 38.1910 -85.7330 167° South 119 137 500 -692 Descending FlightAware ADS-B
Fri 12:02:10 AM 38.1700 -85.7260 165° South 120 138 -682 Descending FlightAware ADS-B
Fri 12:02:24 AM 38.1710 -85.7270 322° Northwest 34 39  Level FlightAware ADS-B
Fri 12:02:52 AM 38.1720 -85.7280 322° Northwest 16 18  Level FlightAware ADS-B
Fri 12:04:12 AM 38.1770 -85.7360 308° West 27 31  Level FlightAware ADS-B
Fri 12:04:44 AM 38.1780 -85.7410 284° West 28 32  Level FlightAware ADS-B
Fri 12:05:08 AM 38.1790 -85.7430 302° West 15 17  Level FlightAware ADS-B
Fri 12:05:28 AM 38.1770 -85.7420 159° South 16 18  Level FlightAware ADS-B
Fri 12:05:56 AM 38.1770 -85.7390 90° East 18 21  Level FlightAware ADS-B
Fri 12:06:08 AM 38.1760 -85.7390 180° South 12 14  Level FlightAware ADS-B
Fri 12:06:36 AM 38.1760 -85.7380 90° East 19 22  Level FlightAware ADS-B

Login

Don't have an account? Register now (free) for customized features, flight alerts, and more!